Temp: 13.9°C   Baro: 1022.8mb
  Wind: 2.0mph   Dir: ENE (65°)
  Rain: 0.0mm (0.0mm/hr)
  Sun: 0W/m2  Humidity: 76%

Historic data

Bath Spa Weather Station Historical Data
Daily Summary for April 11, 2024 Units:  Both    English   Metric
Daily Weekly Monthly Yearly Custom
  High: Low: Average:
Temperature: 63.1 °F /  17.3 °C 51.6 °F /  10.9 °C 56.1 °F /  13.4 °C
Dew Point: 56.4 °F /  13.6 °C 49.1 °F /  9.5 °C 52.7 °F /  11.5 °C
Humidity: 95% 78.2% 89%
Wind Speed: 9.2mph /  14.8km/h - 4.4mph /  7.1km/h
Wind Gust: 15mph /  24.1km/h - -
Wind- - SW
Pressure: 30.44 in /  1030.7 hPa 30.29 in /  1025.6 hPa -
Precipitation: 0.01 in /  0.25 mm    
Historical Graphs
 
 
Tabular Data for April 11, 2024
Time Temperature Dew Point Pressure Wind Wind Speed Wind Gust Humidity Rainfall Rate (Hourly) solar
00:09 53.2 °F /  11.8 °C 50.9 °F /  10.5 °C 30.29in /  1025.6hPa SW 7mph /  11.3km/h 11mph /  17.7km/h 92% 0.00in /  0mm 0 W/m2
00:14 53.2 °F /  11.8 °C 50.9 °F /  10.5 °C 30.30in /  1026hPa WSW 5.4mph /  8.7km/h 11mph /  17.7km/h 92% 0.00in /  0mm 0 W/m2
00:19 53.2 °F /  11.8 °C 50.9 °F /  10.5 °C 30.30in /  1026hPa WSW 5mph /  8km/h 10mph /  16.1km/h 92% 0.00in /  0mm 0 W/m2
00:24 53.2 °F /  11.8 °C 50.9 °F /  10.5 °C 30.30in /  1026hPa SW 5mph /  8km/h 10mph /  16.1km/h 92% 0.00in /  0mm 0 W/m2
00:29 53.2 °F /  11.8 °C 50.9 °F /  10.5 °C 30.30in /  1026hPa SW 5.3mph /  8.5km/h 12mph /  19.3km/h 92% 0.00in /  0mm 0 W/m2
00:34 53.2 °F /  11.8 °C 50.9 °F /  10.5 °C 30.30in /  1026hPa SW 7.7mph /  12.4km/h 12mph /  19.3km/h 92% 0.00in /  0mm 0 W/m2
00:39 53.2 °F /  11.8 °C 50.9 °F /  10.5 °C 30.30in /  1026hPa SW 5.3mph /  8.5km/h 12mph /  19.3km/h 92% 0.00in /  0mm 0 W/m2
00:44 53.2 °F /  11.8 °C 50.9 °F /  10.5 °C 30.30in /  1026hPa SW 6.2mph /  10km/h 11mph /  17.7km/h 92% 0.00in /  0mm 0 W/m2
00:49 53.3 °F /  11.8 °C 51 °F /  10.6 °C 30.30in /  1026hPa SW 7mph /  11.3km/h 10mph /  16.1km/h 92% 0.00in /  0mm 0 W/m2
00:54 53.4 °F /  11.9 °C 51.1 °F /  10.6 °C 30.30in /  1026hPa SW 6.3mph /  10.1km/h 10mph /  16.1km/h 92% 0.00in /  0mm 0 W/m2
00:59 53.4 °F /  11.9 °C 51.1 °F /  10.6 °C 30.30in /  1026hPa SSW 5.1mph /  8.2km/h 10mph /  16.1km/h 92% 0.00in /  0mm 0 W/m2
01:04 53.4 °F /  11.9 °C 51.1 °F /  10.6 °C 30.30in /  1026hPa SW 4.1mph /  6.6km/h 11mph /  17.7km/h 92% 0.00in /  0mm 0 W/m2
01:09 53.4 °F /  11.9 °C 51.1 °F /  10.6 °C 30.30in /  1026hPa SW 4.7mph /  7.6km/h 8mph /  12.9km/h 92% 0.00in /  0mm 0 W/m2
01:14 53.4 °F /  11.9 °C 51.1 °F /  10.6 °C 30.30in /  1026hPa SW 4.1mph /  6.6km/h 8mph /  12.9km/h 92% 0.00in /  0mm 0 W/m2
01:19 53.4 °F /  11.9 °C 51.1 °F /  10.6 °C 30.30in /  1026hPa SSW 3.6mph /  5.8km/h 8mph /  12.9km/h 92% 0.00in /  0mm 0 W/m2
01:24 53.4 °F /  11.9 °C 51.1 °F /  10.6 °C 30.30in /  1026hPa SW 5.2mph /  8.4km/h 10mph /  16.1km/h 92% 0.00in /  0mm 0 W/m2
01:29 53.4 °F /  11.9 °C 51.1 °F /  10.6 °C 30.30in /  1026hPa SSW 3.2mph /  5.1km/h 9mph /  14.5km/h 92% 0.00in /  0mm 0 W/m2
01:34 53.4 °F /  11.9 °C 51.1 °F /  10.6 °C 30.30in /  1026hPa SW 6.1mph /  9.8km/h 9mph /  14.5km/h 92% 0.00in /  0mm 0 W/m2
01:39 53.4 °F /  11.9 °C 51.1 °F /  10.6 °C 30.30in /  1026hPa SW 6mph /  9.7km/h 11mph /  17.7km/h 92% 0.00in /  0mm 0 W/m2
01:44 53.4 °F /  11.9 °C 51.1 °F /  10.6 °C 30.30in /  1026hPa SW 7.7mph /  12.4km/h 11mph /  17.7km/h 92% 0.00in /  0mm 0 W/m2
01:49 53.4 °F /  11.9 °C 51.1 °F /  10.6 °C 30.30in /  1026hPa SW 5.3mph /  8.5km/h 11mph /  17.7km/h 92% 0.00in /  0mm 0 W/m2
01:54 53.4 °F /  11.9 °C 51.1 °F /  10.6 °C 30.30in /  1026hPa SW 6.1mph /  9.8km/h 11mph /  17.7km/h 92% 0.00in /  0mm 0 W/m2
01:59 53.3 °F /  11.8 °C 51 °F /  10.6 °C 30.30in /  1026hPa SW 6.8mph /  10.9km/h 11mph /  17.7km/h 92% 0.00in /  0mm 0 W/m2
02:04 53.2 °F /  11.8 °C 50.9 °F /  10.5 °C 30.30in /  1026hPa SW 6mph /  9.7km/h 11mph /  17.7km/h 92% 0.00in /  0mm 0 W/m2
02:09 53.2 °F /  11.8 °C 50.9 °F /  10.5 °C 30.29in /  1025.6hPa SSW 7.4mph /  11.9km/h 13mph /  20.9km/h 92% 0.00in /  0mm 0 W/m2
02:14 53.2 °F /  11.8 °C 50.8 °F /  10.4 °C 30.29in /  1025.6hPa SW 4.4mph /  7.1km/h 10mph /  16.1km/h 92% 0.00in /  0mm 0 W/m2
02:19 53.1 °F /  11.7 °C 50.7 °F /  10.4 °C 30.30in /  1026hPa SSW 5.1mph /  8.2km/h 10mph /  16.1km/h 92% 0.00in /  0mm 0 W/m2
02:24 53.1 °F /  11.7 °C 50.7 °F /  10.4 °C 30.30in /  1026hPa SW 6.8mph /  10.9km/h 11mph /  17.7km/h 92% 0.00in /  0mm 0 W/m2
02:29 53.1 °F /  11.7 °C 50.7 °F /  10.4 °C 30.30in /  1026hPa SSW 4.1mph /  6.6km/h 11mph /  17.7km/h 92% 0.00in /  0mm 0 W/m2
02:34 53.1 °F /  11.7 °C 50.7 °F /  10.4 °C 30.31in /  1026.3hPa SSW 4.8mph /  7.7km/h 10mph /  16.1km/h 92% 0.00in /  0mm 0 W/m2
02:39 53.1 °F /  11.7 °C 50.7 °F /  10.4 °C 30.30in /  1026hPa SSW 4.7mph /  7.6km/h 10mph /  16.1km/h 92% 0.00in /  0mm 0 W/m2
02:44 52.9 °F /  11.6 °C 50.5 °F /  10.3 °C 30.30in /  1026hPa SSW 3.7mph /  6km/h 10mph /  16.1km/h 92% 0.00in /  0mm 0 W/m2
02:49 52.9 °F /  11.6 °C 50.5 °F /  10.3 °C 30.30in /  1026hPa SSW 6.4mph /  10.3km/h 10mph /  16.1km/h 92% 0.00in /  0mm 0 W/m2
02:54 52.9 °F /  11.6 °C 50.5 °F /  10.3 °C 30.30in /  1026hPa SW 4.1mph /  6.6km/h 9mph /  14.5km/h 92% 0.00in /  0mm 0 W/m2
02:59 52.9 °F /  11.6 °C 50.5 °F /  10.3 °C 30.30in /  1026hPa SW 5.1mph /  8.2km/h 8mph /  12.9km/h 92% 0.00in /  0mm 0 W/m2
03:04 52.9 °F /  11.6 °C 50.5 °F /  10.3 °C 30.30in /  1026hPa WSW 4.7mph /  7.6km/h 9mph /  14.5km/h 92% 0.00in /  0mm 0 W/m2
03:09 52.9 °F /  11.6 °C 50.5 °F /  10.3 °C 30.30in /  1026hPa WSW 3.3mph /  5.3km/h 9mph /  14.5km/h 92% 0.00in /  0mm 0 W/m2
03:14 52.9 °F /  11.6 °C 50.5 °F /  10.3 °C 30.30in /  1026hPa WSW 3.2mph /  5.1km/h 6mph /  9.7km/h 92% 0.00in /  0mm 0 W/m2
03:19 52.9 °F /  11.6 °C 50.5 °F /  10.3 °C 30.31in /  1026.3hPa SW 3.6mph /  5.8km/h 8mph /  12.9km/h 92% 0.00in /  0mm 0 W/m2
03:24 52.9 °F /  11.6 °C 50.5 °F /  10.3 °C 30.31in /  1026.3hPa WSW 4.6mph /  7.4km/h 8mph /  12.9km/h 92% 0.00in /  0mm 0 W/m2
03:29 52.9 °F /  11.6 °C 50.5 °F /  10.3 °C 30.31in /  1026.3hPa WSW 3.8mph /  6.1km/h 8mph /  12.9km/h 92% 0.00in /  0mm 0 W/m2
03:34 52.9 °F /  11.6 °C 50.5 °F /  10.3 °C 30.31in /  1026.3hPa WSW 4.4mph /  7.1km/h 10mph /  16.1km/h 92% 0.00in /  0mm 0 W/m2
03:39 52.9 °F /  11.6 °C 50.5 °F /  10.3 °C 30.31in /  1026.3hPa WSW 3.6mph /  5.8km/h 6mph /  9.7km/h 92% 0.00in /  0mm 0 W/m2
03:44 52.9 °F /  11.6 °C 50.5 °F /  10.3 °C 30.32in /  1026.6hPa WSW 3.9mph /  6.3km/h 7mph /  11.3km/h 92% 0.00in /  0mm 0 W/m2
03:49 52.9 °F /  11.6 °C 50.5 °F /  10.3 °C 30.32in /  1026.6hPa WSW 4.4mph /  7.1km/h 7mph /  11.3km/h 92% 0.00in /  0mm 0 W/m2
03:54 52.9 °F /  11.6 °C 50.5 °F /  10.3 °C 30.32in /  1026.6hPa SW 5.3mph /  8.5km/h 7mph /  11.3km/h 92% 0.00in /  0mm 0 W/m2
03:59 52.9 °F /  11.6 °C 50.5 °F /  10.3 °C 30.31in /  1026.3hPa SW 4.6mph /  7.4km/h 9mph /  14.5km/h 92% 0.00in /  0mm 0 W/m2
04:04 52.9 °F /  11.6 °C 50.5 °F /  10.3 °C 30.32in /  1026.6hPa SW 3.2mph /  5.1km/h 7mph /  11.3km/h 92% 0.00in /  0mm 0 W/m2
04:09 53.1 °F /  11.7 °C 50.7 °F /  10.4 °C 30.32in /  1026.6hPa WSW 3.7mph /  6km/h 8mph /  12.9km/h 92% 0.00in /  0mm 0 W/m2
04:14 53.1 °F /  11.7 °C 50.7 °F /  10.4 °C 30.32in /  1026.6hPa West 2.1mph /  3.4km/h 6mph /  9.7km/h 92% 0.00in /  0mm 0 W/m2
04:19 53.1 °F /  11.7 °C 50.7 °F /  10.4 °C 30.32in /  1026.6hPa West 1.6mph /  2.6km/h 3mph /  4.8km/h 92% 0.00in /  0mm 0 W/m2
04:24 53.1 °F /  11.7 °C 50.7 °F /  10.4 °C 30.32in /  1026.6hPa West 2.4mph /  3.9km/h 5mph /  8km/h 92% 0.00in /  0mm 0 W/m2
04:29 53.1 °F /  11.7 °C 50.7 °F /  10.4 °C 30.32in /  1026.6hPa WSW 2.5mph /  4km/h 5mph /  8km/h 92% 0.00in /  0mm 0 W/m2
04:34 53.1 °F /  11.7 °C 50.7 °F /  10.4 °C 30.32in /  1026.6hPa West 3.5mph /  5.6km/h 6mph /  9.7km/h 92% 0.00in /  0mm 0 W/m2
04:39 53.1 °F /  11.7 °C 50.7 °F /  10.4 °C 30.32in /  1026.6hPa WSW 4mph /  6.4km/h 7mph /  11.3km/h 92% 0.00in /  0mm 0 W/m2
04:44 52.9 °F /  11.6 °C 50.5 °F /  10.3 °C 30.32in /  1026.6hPa WSW 4mph /  6.4km/h 8mph /  12.9km/h 92% 0.00in /  0mm 0 W/m2
04:48 52.9 °F /  11.6 °C 50.5 °F /  10.3 °C 30.32in /  1026.6hPa WSW 3.5mph /  5.6km/h 7mph /  11.3km/h 92% 0.00in /  0mm 0 W/m2
04:54 52.9 °F /  11.6 °C 50.5 °F /  10.3 °C 30.32in /  1026.6hPa WSW 4.1mph /  6.6km/h 6mph /  9.7km/h 92% 0.00in /  0mm 0 W/m2
04:59 52.9 °F /  11.6 °C 50.7 °F /  10.4 °C 30.32in /  1026.6hPa WSW 2.1mph /  3.4km/h 6mph /  9.7km/h 92.4% 0.00in /  0mm 0 W/m2
05:04 52.9 °F /  11.6 °C 50.9 °F /  10.5 °C 30.33in /  1027hPa West 1.6mph /  2.6km/h 4mph /  6.4km/h 93% 0.00in /  0mm 0 W/m2
05:09 52.9 °F /  11.6 °C 50.9 °F /  10.5 °C 30.33in /  1027hPa West 1.6mph /  2.6km/h 4mph /  6.4km/h 93% 0.00in /  0mm 0 W/m2
05:14 52.9 °F /  11.6 °C 50.9 °F /  10.5 °C 30.33in /  1027hPa West 1.2mph /  1.9km/h 3mph /  4.8km/h 93% 0.00in /  0mm 0 W/m2
05:19 52.9 °F /  11.6 °C 50.9 °F /  10.5 °C 30.34in /  1027.3hPa West 2.1mph /  3.4km/h 4mph /  6.4km/h 93% 0.00in /  0mm 0 W/m2
05:24 52.7 °F /  11.5 °C 50.7 °F /  10.4 °C 30.34in /  1027.3hPa West 2.2mph /  3.5km/h 4mph /  6.4km/h 93% 0.00in /  0mm 0 W/m2
05:29 52.7 °F /  11.5 °C 50.7 °F /  10.4 °C 30.34in /  1027.3hPa West 2.9mph /  4.7km/h 5mph /  8km/h 93% 0.00in /  0mm 0 W/m2
05:34 52.6 °F /  11.4 °C 50.6 °F /  10.3 °C 30.33in /  1027hPa West 3.5mph /  5.6km/h 5mph /  8km/h 93% 0.00in /  0mm 0 W/m2
05:39 52.5 °F /  11.4 °C 50.5 °F /  10.3 °C 30.34in /  1027.3hPa SW 3.3mph /  5.3km/h 6mph /  9.7km/h 93% 0.00in /  0mm 0 W/m2
05:44 52.5 °F /  11.4 °C 50.5 °F /  10.3 °C 30.34in /  1027.3hPa SW 2.9mph /  4.7km/h 6mph /  9.7km/h 93% 0.00in /  0mm 0 W/m2
05:49 52.5 °F /  11.4 °C 50.5 °F /  10.3 °C 30.34in /  1027.3hPa SW 0.7mph /  1.1km/h 3mph /  4.8km/h 93% 0.00in /  0mm 0 W/m2
05:54 52.5 °F /  11.4 °C 50.5 °F /  10.3 °C 30.34in /  1027.3hPa Calm   2mph /  3.2km/h 93% 0.00in /  0mm 0 W/m2
05:59 52.5 °F /  11.4 °C 50.5 °F /  10.3 °C 30.34in /  1027.3hPa SW 0.8mph /  1.3km/h 3mph /  4.8km/h 93% 0.00in /  0mm 0 W/m2
06:04 52.5 °F /  11.4 °C 50.5 °F /  10.3 °C 30.34in /  1027.3hPa SW 2.9mph /  4.7km/h 5mph /  8km/h 93% 0.00in /  0mm 0 W/m2
06:09 52.5 °F /  11.4 °C 50.5 °F /  10.3 °C 30.34in /  1027.3hPa WSW 3.1mph /  5km/h 5mph /  8km/h 93% 0.00in /  0mm 0 W/m2
06:14 52.5 °F /  11.4 °C 50.5 °F /  10.3 °C 30.34in /  1027.3hPa WSW 3.2mph /  5.1km/h 6mph /  9.7km/h 93% 0.00in /  0mm 0 W/m2
06:19 52.4 °F /  11.3 °C 50.5 °F /  10.3 °C 30.34in /  1027.3hPa WSW 2.7mph /  4.3km/h 5mph /  8km/h 93% 0.00in /  0mm 0 W/m2
06:24 52.5 °F /  11.4 °C 50.6 °F /  10.3 °C 30.34in /  1027.3hPa WSW 3.2mph /  5.1km/h 5mph /  8km/h 93.4% 0.00in /  0mm 0 W/m2
06:29 52.4 °F /  11.3 °C 50.8 °F /  10.4 °C 30.34in /  1027.3hPa WSW 2.4mph /  3.9km/h 6mph /  9.7km/h 94% 0.00in /  0mm 0 W/m2
06:34 52.4 °F /  11.3 °C 50.8 °F /  10.4 °C 30.35in /  1027.7hPa WSW 1.3mph /  2.1km/h 4mph /  6.4km/h 94% 0.00in /  0mm 5 W/m2
06:39 52.3 °F /  11.3 °C 50.8 °F /  10.4 °C 30.35in /  1027.7hPa WSW 0.5mph /  0.8km/h 3mph /  4.8km/h 94% 0.00in /  0mm 7 W/m2
06:44 52.4 °F /  11.3 °C 50.8 °F /  10.4 °C 30.36in /  1028hPa WSW 0.5mph /  0.8km/h 2mph /  3.2km/h 94% 0.00in /  0mm 9 W/m2
06:49 52.5 °F /  11.4 °C 50.9 °F /  10.5 °C 30.36in /  1028hPa WSW 2.6mph /  4.2km/h 4mph /  6.4km/h 94% 0.00in /  0mm 12 W/m2
06:54 52.5 °F /  11.4 °C 50.9 °F /  10.5 °C 30.36in /  1028hPa West 4mph /  6.4km/h 6mph /  9.7km/h 94% 0.00in /  0mm 12 W/m2
06:59 52.5 °F /  11.4 °C 50.9 °F /  10.5 °C 30.36in /  1028hPa West 1.8mph /  2.9km/h 5mph /  8km/h 94% 0.00in /  0mm 18 W/m2
07:04 52.5 °F /  11.4 °C 50.9 °F /  10.5 °C 30.36in /  1028hPa West 2.5mph /  4km/h 5mph /  8km/h 94% 0.00in /  0mm 14 W/m2
07:09 52.5 °F /  11.4 °C 50.9 °F /  10.5 °C 30.36in /  1028hPa WSW 1.8mph /  2.9km/h 5mph /  8km/h 94% 0.00in /  0mm 18 W/m2
07:14 52.5 °F /  11.4 °C 50.9 °F /  10.5 °C 30.36in /  1028hPa WSW 2.4mph /  3.9km/h 3mph /  4.8km/h 94% 0.00in /  0mm 23 W/m2
07:19 52.5 °F /  11.4 °C 50.9 °F /  10.5 °C 30.37in /  1028.3hPa WSW 3.1mph /  5km/h 5mph /  8km/h 94% 0.00in /  0mm 39 W/m2
07:24 52.5 °F /  11.4 °C 50.9 °F /  10.5 °C 30.37in /  1028.3hPa WSW 3.6mph /  5.8km/h 5mph /  8km/h 94% 0.00in /  0mm 46 W/m2
07:29 52.6 °F /  11.4 °C 51 °F /  10.6 °C 30.37in /  1028.3hPa West 3.5mph /  5.6km/h 7mph /  11.3km/h 94% 0.00in /  0mm 65 W/m2
07:34 52.7 °F /  11.5 °C 51.1 °F /  10.6 °C 30.37in /  1028.3hPa West 2.5mph /  4km/h 4mph /  6.4km/h 94% 0.00in /  0mm 97 W/m2
07:39 52.9 °F /  11.6 °C 51.3 °F /  10.7 °C 30.37in /  1028.3hPa WSW 3mph /  4.8km/h 5mph /  8km/h 94% 0.00in /  0mm 97 W/m2
07:44 52.9 °F /  11.6 °C 51.3 °F /  10.7 °C 30.37in /  1028.3hPa WSW 2.4mph /  3.9km/h 4mph /  6.4km/h 94% 0.00in /  0mm 113 W/m2
07:49 52.9 °F /  11.6 °C 51.3 °F /  10.7 °C 30.37in /  1028.3hPa WSW 1.5mph /  2.4km/h 4mph /  6.4km/h 94% 0.00in /  0mm 125 W/m2
07:54 53.1 °F /  11.7 °C 51.4 °F /  10.8 °C 30.37in /  1028.3hPa Calm   2mph /  3.2km/h 94% 0.00in /  0mm 72 W/m2
07:59 53.1 °F /  11.7 °C 51.4 °F /  10.8 °C 30.37in /  1028.3hPa WSW 0.6mph /  1km/h 2mph /  3.2km/h 94% 0.00in /  0mm 58 W/m2
08:04 53.1 °F /  11.7 °C 51.4 °F /  10.8 °C 30.37in /  1028.3hPa WSW 1.1mph /  1.8km/h 3mph /  4.8km/h 94% 0.00in /  0mm 51 W/m2
08:09 53.1 °F /  11.7 °C 51.4 °F /  10.8 °C 30.37in /  1028.3hPa WSW 1.1mph /  1.8km/h 3mph /  4.8km/h 94% 0.00in /  0mm 46 W/m2
08:14 53.1 °F /  11.7 °C 51.4 °F /  10.8 °C 30.38in /  1028.7hPa WSW 0.4mph /  0.6km/h 2mph /  3.2km/h 94% 0.00in /  0mm 46 W/m2
08:19 53.1 °F /  11.7 °C 51.4 °F /  10.8 °C 30.38in /  1028.7hPa WSW 2mph /  3.2km/h 4mph /  6.4km/h 94% 0.01in /  0.25mm 65 W/m2
08:24 53.1 °F /  11.7 °C 51.4 °F /  10.8 °C 30.38in /  1028.7hPa WSW 2mph /  3.2km/h 4mph /  6.4km/h 94% 0.01in /  0.25mm 72 W/m2
08:29 53.1 °F /  11.7 °C 51.4 °F /  10.8 °C 30.39in /  1029hPa WSW 2.8mph /  4.5km/h 6mph /  9.7km/h 94% 0.01in /  0.25mm 83 W/m2
08:34 53.1 °F /  11.7 °C 51.4 °F /  10.8 °C 30.39in /  1029hPa WSW 2.1mph /  3.4km/h 6mph /  9.7km/h 94% 0.01in /  0.25mm 107 W/m2
08:39 53.2 °F /  11.8 °C 51.5 °F /  10.8 °C 30.39in /  1029hPa West 3.7mph /  6km/h 6mph /  9.7km/h 94% 0.01in /  0.25mm 105 W/m2
08:44 53.2 °F /  11.8 °C 51.6 °F /  10.9 °C 30.39in /  1029hPa West 3.8mph /  6.1km/h 5mph /  8km/h 94% 0.01in /  0.25mm 123 W/m2
08:49 53.4 °F /  11.9 °C 51.8 °F /  11 °C 30.39in /  1029hPa West 3.5mph /  5.6km/h 6mph /  9.7km/h 94% 0.01in /  0.25mm 163 W/m2
08:54 53.4 °F /  11.9 °C 51.8 °F /  11 °C 30.39in /  1029hPa WSW 4.1mph /  6.6km/h 6mph /  9.7km/h 94% 0.01in /  0.25mm 156 W/m2
08:59 53.5 °F /  11.9 °C 51.9 °F /  11.1 °C 30.39in /  1029hPa SW 3.9mph /  6.3km/h 7mph /  11.3km/h 94% 0.01in /  0.25mm 181 W/m2
09:04 53.6 °F /  12 °C 52 °F /  11.1 °C 30.39in /  1029hPa West 3.8mph /  6.1km/h 8mph /  12.9km/h 94% 0.01in /  0.25mm 190 W/m2
09:09 53.6 °F /  12 °C 52 °F /  11.1 °C 30.39in /  1029hPa WSW 4.4mph /  7.1km/h 8mph /  12.9km/h 94% 0.01in /  0.25mm 213 W/m2
09:14 53.6 °F /  12 °C 52 °F /  11.1 °C 30.39in /  1029hPa SW 3.5mph /  5.6km/h 6mph /  9.7km/h 94% 0.01in /  0.25mm 186 W/m2
09:19 53.7 °F /  12.1 °C 52.2 °F /  11.2 °C 30.40in /  1029.3hPa SW 2.8mph /  4.5km/h 6mph /  9.7km/h 94.4% 0.01in /  0.25mm 160 W/m2
09:24 53.8 °F /  12.1 °C 52.3 °F /  11.3 °C 30.40in /  1029.3hPa WSW 2.8mph /  4.5km/h 4mph /  6.4km/h 95% 0.00in /  0mm 141 W/m2
09:29 53.8 °F /  12.1 °C 52.3 °F /  11.3 °C 30.40in /  1029.3hPa WSW 3.2mph /  5.1km/h 6mph /  9.7km/h 94.6% 0.00in /  0mm 179 W/m2
09:34 53.8 °F /  12.1 °C 52.3 °F /  11.3 °C 30.40in /  1029.3hPa SW 4.2mph /  6.8km/h 7mph /  11.3km/h 95% 0.00in /  0mm 220 W/m2
09:39 53.9 °F /  12.2 °C 52.4 °F /  11.3 °C 30.40in /  1029.3hPa WSW 2.3mph /  3.7km/h 6mph /  9.7km/h 95% 0.00in /  0mm 213 W/m2
09:44 54.1 °F /  12.3 °C 52.7 °F /  11.5 °C 30.41in /  1029.7hPa WSW 3.1mph /  5km/h 6mph /  9.7km/h 95% 0.00in /  0mm 241 W/m2
09:49 54.1 °F /  12.3 °C 52.7 °F /  11.5 °C 30.40in /  1029.3hPa WSW 2.3mph /  3.7km/h 5mph /  8km/h 95% 0.00in /  0mm 151 W/m2
09:54 54.1 °F /  12.3 °C 52.7 °F /  11.5 °C 30.40in /  1029.3hPa SSW 2.8mph /  4.5km/h 6mph /  9.7km/h 95% 0.00in /  0mm 185 W/m2
09:59 54.1 °F /  12.3 °C 52.7 °F /  11.5 °C 30.41in /  1029.7hPa SW 2.9mph /  4.7km/h 7mph /  11.3km/h 95% 0.00in /  0mm 139 W/m2
10:04 54.3 °F /  12.4 °C 52.9 °F /  11.6 °C 30.42in /  1030hPa SSW 3.7mph /  6km/h 7mph /  11.3km/h 95% 0.00in /  0mm 200 W/m2
10:09 54.5 °F /  12.5 °C 53 °F /  11.7 °C 30.42in /  1030hPa SW 2.6mph /  4.2km/h 6mph /  9.7km/h 95% 0.00in /  0mm 169 W/m2
10:14 54.7 °F /  12.6 °C 53.2 °F /  11.8 °C 30.42in /  1030hPa WSW 3.2mph /  5.1km/h 5mph /  8km/h 95% 0.00in /  0mm 121 W/m2
10:19 54.7 °F /  12.6 °C 53.2 °F /  11.8 °C 30.43in /  1030.4hPa SW 3.4mph /  5.5km/h 6mph /  9.7km/h 95% 0.00in /  0mm 125 W/m2
10:24 54.9 °F /  12.7 °C 53.2 °F /  11.8 °C 30.43in /  1030.4hPa SW 3.3mph /  5.3km/h 7mph /  11.3km/h 94% 0.00in /  0mm 258 W/m2
10:29 55 °F /  12.8 °C 53.4 °F /  11.9 °C 30.43in /  1030.4hPa WSW 3.7mph /  6km/h 7mph /  11.3km/h 94% 0.00in /  0mm 260 W/m2
10:34 55.2 °F /  12.9 °C 53.6 °F /  12 °C 30.43in /  1030.4hPa West 5.5mph /  8.9km/h 8mph /  12.9km/h 94% 0.00in /  0mm 239 W/m2
10:39 55 °F /  12.8 °C 53.4 °F /  11.9 °C 30.42in /  1030hPa West 5.2mph /  8.4km/h 8mph /  12.9km/h 94% 0.00in /  0mm 211 W/m2
10:44 55.2 °F /  12.9 °C 53.6 °F /  12 °C 30.42in /  1030hPa WSW 4.8mph /  7.7km/h 8mph /  12.9km/h 94% 0.00in /  0mm 243 W/m2
10:49 55.4 °F /  13 °C 53.8 °F /  12.1 °C 30.43in /  1030.4hPa WSW 5.6mph /  9km/h 8mph /  12.9km/h 94% 0.00in /  0mm 497 W/m2
10:54 55.8 °F /  13.2 °C 54.2 °F /  12.3 °C 30.42in /  1030hPa WNW 4.6mph /  7.4km/h 8mph /  12.9km/h 94% 0.00in /  0mm 534 W/m2
10:59 55.9 °F /  13.3 °C 54.3 °F /  12.4 °C 30.43in /  1030.4hPa WSW 5.6mph /  9km/h 9mph /  14.5km/h 94% 0.00in /  0mm 508 W/m2
11:04 56 °F /  13.3 °C 54.4 °F /  12.4 °C 30.43in /  1030.4hPa West 7.4mph /  11.9km/h 10mph /  16.1km/h 94% 0.00in /  0mm 369 W/m2
11:09 56 °F /  13.3 °C 54.4 °F /  12.4 °C 30.43in /  1030.4hPa West 4.6mph /  7.4km/h 8mph /  12.9km/h 94% 0.00in /  0mm 385 W/m2
11:14 56.4 °F /  13.6 °C 54.5 °F /  12.5 °C 30.43in /  1030.4hPa West 4.8mph /  7.7km/h 8mph /  12.9km/h 93.4% 0.00in /  0mm 452 W/m2
11:19 56.3 °F /  13.5 °C 54.3 °F /  12.4 °C 30.42in /  1030hPa West 6.1mph /  9.8km/h 10mph /  16.1km/h 93% 0.00in /  0mm 439 W/m2
11:24 56.6 °F /  13.7 °C 54.6 °F /  12.6 °C 30.43in /  1030.4hPa West 5.8mph /  9.3km/h 11mph /  17.7km/h 93% 0.00in /  0mm 390 W/m2
11:29 56.8 °F /  13.8 °C 54.8 °F /  12.7 °C 30.43in /  1030.4hPa West 4.5mph /  7.2km/h 11mph /  17.7km/h 93% 0.00in /  0mm 315 W/m2
11:34 57 °F /  13.9 °C 55 °F /  12.8 °C 30.43in /  1030.4hPa WSW 6mph /  9.7km/h 9mph /  14.5km/h 93% 0.00in /  0mm 315 W/m2
11:39 57 °F /  13.9 °C 54.9 °F /  12.7 °C 30.43in /  1030.4hPa WSW 5.6mph /  9km/h 9mph /  14.5km/h 92.8% 0.00in /  0mm 267 W/m2
11:44 57.3 °F /  14.1 °C 54.9 °F /  12.7 °C 30.43in /  1030.4hPa WSW 3.5mph /  5.6km/h 9mph /  14.5km/h 92% 0.00in /  0mm 417 W/m2
11:49 57.7 °F /  14.3 °C 55.4 °F /  13 °C 30.43in /  1030.4hPa SW 5.6mph /  9km/h 9mph /  14.5km/h 92% 0.00in /  0mm 450 W/m2
11:54 58.2 °F /  14.6 °C 55.6 °F /  13.1 °C 30.42in /  1030hPa WSW 5mph /  8km/h 8mph /  12.9km/h 91.4% 0.00in /  0mm 475 W/m2
11:59 58.5 °F /  14.7 °C 55.8 °F /  13.2 °C 30.42in /  1030hPa West 5mph /  8km/h 8mph /  12.9km/h 90.8% 0.00in /  0mm 399 W/m2
12:04 58.6 °F /  14.8 °C 55.8 °F /  13.2 °C 30.42in /  1030hPa WSW 5.1mph /  8.2km/h 10mph /  16.1km/h 90.2% 0.00in /  0mm 494 W/m2
12:09 58.9 °F /  14.9 °C 55.8 °F /  13.2 °C 30.42in /  1030hPa WSW 5mph /  8km/h 10mph /  16.1km/h 89.4% 0.00in /  0mm 461 W/m2
12:14 59 °F /  15 °C 55.8 °F /  13.2 °C 30.42in /  1030hPa West 4.9mph /  7.9km/h 10mph /  16.1km/h 88.8% 0.00in /  0mm 404 W/m2
12:19 59.4 °F /  15.2 °C 55.8 °F /  13.2 °C 30.43in /  1030.4hPa WSW 5.5mph /  8.9km/h 10mph /  16.1km/h 88% 0.00in /  0mm 531 W/m2
12:24 59.6 °F /  15.3 °C 55.8 °F /  13.2 °C 30.42in /  1030hPa WSW 6.7mph /  10.8km/h 11mph /  17.7km/h 87.2% 0.00in /  0mm 629 W/m2
12:29 59.9 °F /  15.5 °C 55.8 °F /  13.2 °C 30.42in /  1030hPa WSW 7.6mph /  12.2km/h 11mph /  17.7km/h 86% 0.00in /  0mm 675 W/m2
12:34 60.5 °F /  15.8 °C 55.8 °F /  13.2 °C 30.43in /  1030.4hPa SW 6.4mph /  10.3km/h 11mph /  17.7km/h 84.6% 0.00in /  0mm 619 W/m2
12:39 60.7 °F /  15.9 °C 55.5 °F /  13.1 °C 30.43in /  1030.4hPa SW 6mph /  9.7km/h 10mph /  16.1km/h 83% 0.00in /  0mm 396 W/m2
12:44 61 °F /  16.1 °C 55.6 °F /  13.1 °C 30.43in /  1030.4hPa SW 5.8mph /  9.3km/h 9mph /  14.5km/h 82.4% 0.00in /  0mm 403 W/m2
12:49 61 °F /  16.1 °C 55.1 °F /  12.8 °C 30.43in /  1030.4hPa SW 5.4mph /  8.7km/h 8mph /  12.9km/h 81.4% 0.00in /  0mm 360 W/m2
12:54 61.1 °F /  16.2 °C 55.1 °F /  12.8 °C 30.43in /  1030.4hPa WSW 5.2mph /  8.4km/h 8mph /  12.9km/h 81% 0.00in /  0mm 360 W/m2
12:59 61 °F /  16.1 °C 55 °F /  12.8 °C 30.43in /  1030.4hPa WSW 5.3mph /  8.5km/h 10mph /  16.1km/h 81% 0.00in /  0mm 325 W/m2
13:04 60.8 °F /  16 °C 55.1 °F /  12.8 °C 30.43in /  1030.4hPa WNW 3.8mph /  6.1km/h 9mph /  14.5km/h 81.8% 0.00in /  0mm 336 W/m2
13:09 60.8 °F /  16 °C 55.1 °F /  12.8 °C 30.44in /  1030.7hPa WSW 5.4mph /  8.7km/h 8mph /  12.9km/h 81.8% 0.00in /  0mm 304 W/m2
13:14 61 °F /  16.1 °C 55 °F /  12.8 °C 30.43in /  1030.4hPa WSW 5.2mph /  8.4km/h 13mph /  20.9km/h 81% 0.00in /  0mm 468 W/m2
13:19 61.2 °F /  16.2 °C 55 °F /  12.8 °C 30.43in /  1030.4hPa SW 6.8mph /  10.9km/h 13mph /  20.9km/h 80.2% 0.00in /  0mm 657 W/m2
13:24 61.3 °F /  16.3 °C 54.8 °F /  12.7 °C 30.43in /  1030.4hPa SSW 4.9mph /  7.9km/h 9mph /  14.5km/h 79% 0.00in /  0mm 657 W/m2
13:28 61.4 °F /  16.3 °C 54.9 °F /  12.7 °C 30.43in /  1030.4hPa SSW 4.5mph /  7.2km/h 9mph /  14.5km/h 79% 0.00in /  0mm 420 W/m2
13:34 61.5 °F /  16.4 °C 54.9 °F /  12.7 °C 30.43in /  1030.4hPa WSW 3.9mph /  6.3km/h 9mph /  14.5km/h 79% 0.00in /  0mm 336 W/m2
13:39 61.6 °F /  16.4 °C 54.9 °F /  12.7 °C 30.43in /  1030.4hPa SW 5.7mph /  9.2km/h 11mph /  17.7km/h 78.8% 0.00in /  0mm 385 W/m2
13:44 61.5 °F /  16.4 °C 54.7 °F /  12.6 °C 30.43in /  1030.4hPa SW 6.3mph /  10.1km/h 12mph /  19.3km/h 78.2% 0.00in /  0mm 373 W/m2
13:49 61.5 °F /  16.4 °C 54.9 °F /  12.7 °C 30.43in /  1030.4hPa SW 7.4mph /  11.9km/h 12mph /  19.3km/h 79% 0.00in /  0mm 313 W/m2
13:54 61.6 °F /  16.4 °C 54.9 °F /  12.7 °C 30.43in /  1030.4hPa SSW 4.4mph /  7.1km/h 11mph /  17.7km/h 79% 0.00in /  0mm 329 W/m2
13:59 61.4 °F /  16.3 °C 54.9 °F /  12.7 °C 30.42in /  1030hPa SSW 7.3mph /  11.7km/h 11mph /  17.7km/h 79% 0.00in /  0mm 304 W/m2
14:04 61.8 °F /  16.6 °C 55.4 °F /  13 °C 30.42in /  1030hPa South 2.4mph /  3.9km/h 9mph /  14.5km/h 79.8% 0.00in /  0mm 490 W/m2
14:09 62.2 °F /  16.8 °C 55.7 °F /  13.2 °C 30.42in /  1030hPa WSW 5.2mph /  8.4km/h 12mph /  19.3km/h 79.4% 0.00in /  0mm 615 W/m2
14:14 62.4 °F /  16.9 °C 55.8 °F /  13.2 °C 30.42in /  1030hPa West 5.1mph /  8.2km/h 12mph /  19.3km/h 79% 0.00in /  0mm 357 W/m2
14:19 62.2 °F /  16.8 °C 55.5 °F /  13.1 °C 30.42in /  1030hPa WSW 4.5mph /  7.2km/h 11mph /  17.7km/h 78.8% 0.00in /  0mm 432 W/m2
14:24 62.4 °F /  16.9 °C 55.8 °F /  13.2 °C 30.42in /  1030hPa SW 7mph /  11.3km/h 11mph /  17.7km/h 79% 0.00in /  0mm 334 W/m2
14:29 62.3 °F /  16.8 °C 55.7 °F /  13.2 °C 30.42in /  1030hPa SW 6.3mph /  10.1km/h 10mph /  16.1km/h 79% 0.00in /  0mm 269 W/m2
14:34 62.1 °F /  16.7 °C 55.5 °F /  13.1 °C 30.42in /  1030hPa WSW 7.5mph /  12.1km/h 11mph /  17.7km/h 79% 0.00in /  0mm 257 W/m2
14:39 61.9 °F /  16.6 °C 55.2 °F /  12.9 °C 30.42in /  1030hPa SW 6.4mph /  10.3km/h 14mph /  22.5km/h 79% 0.00in /  0mm 308 W/m2
14:44 61.9 °F /  16.6 °C 55.5 °F /  13.1 °C 30.42in /  1030hPa SW 4mph /  6.4km/h 10mph /  16.1km/h 79.8% 0.00in /  0mm 294 W/m2
14:49 62 °F /  16.7 °C 55.7 °F /  13.2 °C 30.42in /  1030hPa SW 6.1mph /  9.8km/h 11mph /  17.7km/h 80% 0.00in /  0mm 206 W/m2
14:54 61.6 °F /  16.4 °C 55.3 °F /  12.9 °C 30.42in /  1030hPa SSW 6.6mph /  10.6km/h 11mph /  17.7km/h 80% 0.00in /  0mm 230 W/m2
14:59 61.5 °F /  16.4 °C 55.2 °F /  12.9 °C 30.42in /  1030hPa SW 5.2mph /  8.4km/h 11mph /  17.7km/h 80% 0.00in /  0mm 429 W/m2
15:04 61.8 °F /  16.6 °C 55.5 °F /  13.1 °C 30.42in /  1030hPa SW 6.4mph /  10.3km/h 12mph /  19.3km/h 80% 0.00in /  0mm 424 W/m2
15:09 61.5 °F /  16.4 °C 55.2 °F /  12.9 °C 30.42in /  1030hPa SSW 7.6mph /  12.2km/h 10mph /  16.1km/h 80% 0.00in /  0mm 209 W/m2
15:14 61.5 °F /  16.4 °C 55.2 °F /  12.9 °C 30.42in /  1030hPa SW 4.9mph /  7.9km/h 10mph /  16.1km/h 80% 0.00in /  0mm 276 W/m2
15:19 61.6 °F /  16.4 °C 55.3 °F /  12.9 °C 30.42in /  1030hPa SW 4.8mph /  7.7km/h 10mph /  16.1km/h 80% 0.00in /  0mm 251 W/m2
15:24 61.5 °F /  16.4 °C 55.3 °F /  12.9 °C 30.41in /  1029.7hPa WSW 5.6mph /  9km/h 10mph /  16.1km/h 80.2% 0.00in /  0mm 216 W/m2
15:29 61.6 °F /  16.4 °C 55.4 °F /  13 °C 30.42in /  1030hPa SW 4.4mph /  7.1km/h 11mph /  17.7km/h 80.4% 0.00in /  0mm 155 W/m2
15:34 61.5 °F /  16.4 °C 55.2 °F /  12.9 °C 30.42in /  1030hPa SSW 4.4mph /  7.1km/h 10mph /  16.1km/h 80% 0.00in /  0mm 225 W/m2
15:39 61.6 °F /  16.4 °C 55.4 °F /  13 °C 30.41in /  1029.7hPa SSW 4.6mph /  7.4km/h 10mph /  16.1km/h 80.4% 0.00in /  0mm 265 W/m2
15:44 61.5 °F /  16.4 °C 55.2 °F /  12.9 °C 30.41in /  1029.7hPa SSW 4.8mph /  7.7km/h 9mph /  14.5km/h 80% 0.00in /  0mm 338 W/m2
15:49 61.8 °F /  16.6 °C 55.5 °F /  13.1 °C 30.40in /  1029.3hPa South 3.8mph /  6.1km/h 9mph /  14.5km/h 80% 0.00in /  0mm 352 W/m2
15:54 62.1 °F /  16.7 °C 55.8 °F /  13.2 °C 30.40in /  1029.3hPa SW 5.9mph /  9.5km/h 9mph /  14.5km/h 80% 0.00in /  0mm 255 W/m2
15:59 62.4 °F /  16.9 °C 56.1 °F /  13.4 °C 30.40in /  1029.3hPa SW 4.1mph /  6.6km/h 8mph /  12.9km/h 80% 0.00in /  0mm 332 W/m2
16:04 62.4 °F /  16.9 °C 55.9 °F /  13.3 °C 30.40in /  1029.3hPa SW 7mph /  11.3km/h 10mph /  16.1km/h 79.2% 0.00in /  0mm 455 W/m2
16:09 62.7 °F /  17.1 °C 56 °F /  13.3 °C 30.40in /  1029.3hPa WSW 5.1mph /  8.2km/h 10mph /  16.1km/h 79% 0.00in /  0mm 461 W/m2
16:14 63.1 °F /  17.3 °C 56.4 °F /  13.6 °C 30.40in /  1029.3hPa SW 4.9mph /  7.9km/h 8mph /  12.9km/h 79% 0.00in /  0mm 397 W/m2
16:19 63 °F /  17.2 °C 56.3 °F /  13.5 °C 30.40in /  1029.3hPa SW 4.2mph /  6.8km/h 11mph /  17.7km/h 79% 0.00in /  0mm 306 W/m2
16:24 62.7 °F /  17.1 °C 56 °F /  13.3 °C 30.40in /  1029.3hPa SW 7.9mph /  12.7km/h 11mph /  17.7km/h 79% 0.00in /  0mm 290 W/m2
16:29 62.2 °F /  16.8 °C 55.7 °F /  13.2 °C 30.40in /  1029.3hPa SW 3.6mph /  5.8km/h 11mph /  17.7km/h 79.2% 0.00in /  0mm 172 W/m2
16:34 62.2 °F /  16.8 °C 55.9 °F /  13.3 °C 30.40in /  1029.3hPa SW 6.1mph /  9.8km/h 10mph /  16.1km/h 80% 0.00in /  0mm 178 W/m2
16:39 61.9 °F /  16.6 °C 55.6 °F /  13.1 °C 30.41in /  1029.7hPa SW 9.2mph /  14.8km/h 13mph /  20.9km/h 80% 0.00in /  0mm 255 W/m2
16:44 61.5 °F /  16.4 °C 55.5 °F /  13.1 °C 30.40in /  1029.3hPa SSW 5mph /  8km/h 11mph /  17.7km/h 80.6% 0.00in /  0mm 255 W/m2
16:49 62 °F /  16.7 °C 56 °F /  13.3 °C 30.40in /  1029.3hPa SW 2.9mph /  4.7km/h 5mph /  8km/h 81% 0.00in /  0mm 139 W/m2
16:54 62 °F /  16.7 °C 56 °F /  13.3 °C 30.40in /  1029.3hPa WSW 5.4mph /  8.7km/h 9mph /  14.5km/h 81% 0.00in /  0mm 102 W/m2
16:59 61.7 °F /  16.5 °C 55.8 °F /  13.2 °C 30.40in /  1029.3hPa SW 6.6mph /  10.6km/h 12mph /  19.3km/h 81% 0.00in /  0mm 135 W/m2
17:04 61.4 °F /  16.3 °C 55.7 °F /  13.2 °C 30.40in /  1029.3hPa SSW 4.7mph /  7.6km/h 11mph /  17.7km/h 81.6% 0.00in /  0mm 148 W/m2
17:09 61.2 °F /  16.2 °C 55.6 °F /  13.1 °C 30.40in /  1029.3hPa SSW 3.6mph /  5.8km/h 11mph /  17.7km/h 82% 0.00in /  0mm 65 W/m2
17:14 61.1 °F /  16.2 °C 55.5 °F /  13.1 °C 30.40in /  1029.3hPa SSW 5.6mph /  9km/h 11mph /  17.7km/h 82% 0.00in /  0mm 86 W/m2
17:19 60.7 °F /  15.9 °C 55.4 °F /  13 °C 30.40in /  1029.3hPa South 4.4mph /  7.1km/h 11mph /  17.7km/h 82.8% 0.00in /  0mm 132 W/m2
17:24 60.5 °F /  15.8 °C 55.3 °F /  12.9 °C 30.40in /  1029.3hPa SSW 5mph /  8km/h 11mph /  17.7km/h 83% 0.00in /  0mm 135 W/m2
17:29 60.3 °F /  15.7 °C 55.2 °F /  12.9 °C 30.39in /  1029hPa SSW 5.2mph /  8.4km/h 11mph /  17.7km/h 83.2% 0.00in /  0mm 197 W/m2
17:34 60.3 °F /  15.7 °C 55.4 °F /  13 °C 30.39in /  1029hPa SSW 6mph /  9.7km/h 11mph /  17.7km/h 84% 0.00in /  0mm 155 W/m2
17:39 60.4 °F /  15.8 °C 55.6 °F /  13.1 °C 30.39in /  1029hPa SW 8mph /  12.9km/h 15mph /  24.1km/h 84% 0.00in /  0mm 190 W/m2
17:44 60.5 °F /  15.8 °C 55.7 °F /  13.2 °C 30.39in /  1029hPa WSW 7mph /  11.3km/h 13mph /  20.9km/h 84% 0.00in /  0mm 178 W/m2
17:49 60.4 °F /  15.8 °C 55.2 °F /  12.9 °C 30.40in /  1029.3hPa SW 7.4mph /  11.9km/h 14mph /  22.5km/h 83% 0.00in /  0mm 278 W/m2
17:54 60.9 °F /  16.1 °C 55.7 °F /  13.2 °C 30.40in /  1029.3hPa SW 4.4mph /  7.1km/h 9mph /  14.5km/h 83% 0.00in /  0mm 225 W/m2
17:59 60.7 °F /  15.9 °C 55.5 °F /  13.1 °C 30.40in /  1029.3hPa SW 8mph /  12.9km/h 13mph /  20.9km/h 83% 0.00in /  0mm 107 W/m2
18:04 60.4 °F /  15.8 °C 55.2 °F /  12.9 °C 30.40in /  1029.3hPa SSW 4mph /  6.4km/h 10mph /  16.1km/h 83% 0.00in /  0mm 49 W/m2
18:09 60.2 °F /  15.7 °C 55 °F /  12.8 °C 30.39in /  1029hPa SW 5.6mph /  9km/h 10mph /  16.1km/h 83% 0.00in /  0mm 139 W/m2
18:14 60.1 °F /  15.6 °C 55.1 °F /  12.8 °C 30.39in /  1029hPa SW 4.5mph /  7.2km/h 8mph /  12.9km/h 83.4% 0.00in /  0mm 193 W/m2
18:19 60.3 °F /  15.7 °C 55.4 °F /  13 °C 30.40in /  1029.3hPa SSW 4.4mph /  7.1km/h 8mph /  12.9km/h 84% 0.00in /  0mm 139 W/m2
18:24 60.4 °F /  15.8 °C 55.5 °F /  13.1 °C 30.40in /  1029.3hPa SW 5.1mph /  8.2km/h 10mph /  16.1km/h 83.8% 0.00in /  0mm 107 W/m2
18:29 60.4 °F /  15.8 °C 55.2 °F /  12.9 °C 30.40in /  1029.3hPa SW 5.2mph /  8.4km/h 10mph /  16.1km/h 83% 0.00in /  0mm 113 W/m2
18:34 60.4 °F /  15.8 °C 55.2 °F /  12.9 °C 30.40in /  1029.3hPa SSW 6.1mph /  9.8km/h 13mph /  20.9km/h 83% 0.00in /  0mm 100 W/m2
18:39 60.3 °F /  15.7 °C 55 °F /  12.8 °C 30.40in /  1029.3hPa SW 4.9mph /  7.9km/h 10mph /  16.1km/h 83% 0.00in /  0mm 42 W/m2
18:44 60.3 °F /  15.7 °C 55 °F /  12.8 °C 30.40in /  1029.3hPa SW 5mph /  8km/h 11mph /  17.7km/h 83% 0.00in /  0mm 90 W/m2
18:49 60.2 °F /  15.7 °C 55.1 °F /  12.8 °C 30.40in /  1029.3hPa SW 6.3mph /  10.1km/h 13mph /  20.9km/h 83.4% 0.00in /  0mm 98 W/m2
18:54 60.1 °F /  15.6 °C 55.2 °F /  12.9 °C 30.40in /  1029.3hPa SSW 5.5mph /  8.9km/h 13mph /  20.9km/h 84% 0.00in /  0mm 74 W/m2
18:59 60.1 °F /  15.6 °C 55.2 °F /  12.9 °C 30.40in /  1029.3hPa SSW 4.1mph /  6.6km/h 9mph /  14.5km/h 84% 0.00in /  0mm 65 W/m2
19:04 60.1 °F /  15.6 °C 55.2 °F /  12.9 °C 30.40in /  1029.3hPa SSW 4mph /  6.4km/h 10mph /  16.1km/h 84% 0.00in /  0mm 40 W/m2
19:09 59.8 °F /  15.4 °C 54.9 °F /  12.7 °C 30.40in /  1029.3hPa SSW 5.4mph /  8.7km/h 11mph /  17.7km/h 84% 0.00in /  0mm 23 W/m2
19:14 59.5 °F /  15.3 °C 54.6 °F /  12.6 °C 30.40in /  1029.3hPa SSE 4.1mph /  6.6km/h 9mph /  14.5km/h 84% 0.00in /  0mm 16 W/m2
19:19 59.2 °F /  15.1 °C 54.3 °F /  12.4 °C 30.40in /  1029.3hPa SSE 3.2mph /  5.1km/h 7mph /  11.3km/h 84% 0.00in /  0mm 18 W/m2
19:24 59 °F /  15 °C 54.1 °F /  12.3 °C 30.40in /  1029.3hPa South 3.7mph /  6km/h 10mph /  16.1km/h 84% 0.00in /  0mm 32 W/m2
19:29 58.7 °F /  14.8 °C 54.1 °F /  12.3 °C 30.40in /  1029.3hPa South 4.2mph /  6.8km/h 9mph /  14.5km/h 84.8% 0.00in /  0mm 39 W/m2
19:34 58.5 °F /  14.7 °C 54 °F /  12.2 °C 30.40in /  1029.3hPa SSW 4.1mph /  6.6km/h 10mph /  16.1km/h 85% 0.00in /  0mm 11 W/m2
19:39 58.4 °F /  14.7 °C 53.9 °F /  12.2 °C 30.40in /  1029.3hPa SSW 4.5mph /  7.2km/h 9mph /  14.5km/h 85% 0.00in /  0mm 7 W/m2
19:44 58.3 °F /  14.6 °C 53.8 °F /  12.1 °C 30.40in /  1029.3hPa SSW 4.8mph /  7.7km/h 9mph /  14.5km/h 85% 0.00in /  0mm 0 W/m2
19:49 58 °F /  14.4 °C 53.5 °F /  11.9 °C 30.40in /  1029.3hPa South 4.3mph /  6.9km/h 10mph /  16.1km/h 85% 0.00in /  0mm 0 W/m2
19:54 57.8 °F /  14.3 °C 53.3 °F /  11.8 °C 30.40in /  1029.3hPa SSW 4.8mph /  7.7km/h 7mph /  11.3km/h 85% 0.00in /  0mm 0 W/m2
19:59 57.7 °F /  14.3 °C 53.2 °F /  11.8 °C 30.40in /  1029.3hPa South 2.5mph /  4km/h 7mph /  11.3km/h 85% 0.00in /  0mm 0 W/m2
20:04 57.5 °F /  14.2 °C 53.2 °F /  11.8 °C 30.40in /  1029.3hPa SSW 4.4mph /  7.1km/h 9mph /  14.5km/h 85.6% 0.00in /  0mm 0 W/m2
20:09 57.2 °F /  14 °C 53.1 °F /  11.7 °C 30.40in /  1029.3hPa South 3.2mph /  5.1km/h 9mph /  14.5km/h 86% 0.00in /  0mm 0 W/m2
20:14 57 °F /  13.9 °C 52.9 °F /  11.6 °C 30.40in /  1029.3hPa SSW 3.8mph /  6.1km/h 12mph /  19.3km/h 86% 0.00in /  0mm 0 W/m2
20:19 56.8 °F /  13.8 °C 52.7 °F /  11.5 °C 30.40in /  1029.3hPa South 3.2mph /  5.1km/h 9mph /  14.5km/h 86% 0.00in /  0mm 0 W/m2
20:24 56.8 °F /  13.8 °C 52.6 °F /  11.4 °C 30.40in /  1029.3hPa SSW 4.8mph /  7.7km/h 9mph /  14.5km/h 86% 0.00in /  0mm 0 W/m2
20:29 56.5 °F /  13.6 °C 52.3 °F /  11.3 °C 30.40in /  1029.3hPa SSW 4.8mph /  7.7km/h 10mph /  16.1km/h 86% 0.00in /  0mm 0 W/m2
20:34 56.5 °F /  13.6 °C 52.3 °F /  11.3 °C 30.41in /  1029.7hPa SSW 5.2mph /  8.4km/h 11mph /  17.7km/h 86% 0.00in /  0mm 0 W/m2
20:39 56.3 °F /  13.5 °C 52.3 °F /  11.3 °C 30.41in /  1029.7hPa SSW 4mph /  6.4km/h 11mph /  17.7km/h 86.4% 0.00in /  0mm 0 W/m2
20:44 56.1 °F /  13.4 °C 52.3 °F /  11.3 °C 30.41in /  1029.7hPa SSW 6.4mph /  10.3km/h 10mph /  16.1km/h 87% 0.00in /  0mm 0 W/m2
20:49 55.9 °F /  13.3 °C 52.2 °F /  11.2 °C 30.41in /  1029.7hPa SSW 4.2mph /  6.8km/h 10mph /  16.1km/h 87% 0.00in /  0mm 0 W/m2
20:54 55.9 °F /  13.3 °C 52.2 °F /  11.2 °C 30.41in /  1029.7hPa South 5.1mph /  8.2km/h 10mph /  16.1km/h 87% 0.00in /  0mm 0 W/m2
20:59 55.9 °F /  13.3 °C 52.2 °F /  11.2 °C 30.42in /  1030hPa South 2.5mph /  4km/h 10mph /  16.1km/h 87% 0.00in /  0mm 0 W/m2
21:04 55.8 °F /  13.2 °C 52 °F /  11.1 °C 30.42in /  1030hPa South 5.1mph /  8.2km/h 9mph /  14.5km/h 87% 0.00in /  0mm 0 W/m2
21:09 55.6 °F /  13.1 °C 52 °F /  11.1 °C 30.42in /  1030hPa SSW 4.1mph /  6.6km/h 10mph /  16.1km/h 87.4% 0.00in /  0mm 0 W/m2
21:14 55.4 °F /  13 °C 51.7 °F /  10.9 °C 30.42in /  1030hPa SSW 3.6mph /  5.8km/h 10mph /  16.1km/h 87.4% 0.00in /  0mm 0 W/m2
21:19 55.1 °F /  12.8 °C 51.7 °F /  10.9 °C 30.42in /  1030hPa SSW 5.6mph /  9km/h 11mph /  17.7km/h 88% 0.00in /  0mm 0 W/m2
21:24 55 °F /  12.8 °C 51.6 °F /  10.9 °C 30.43in /  1030.4hPa SSW 5.9mph /  9.5km/h 13mph /  20.9km/h 88% 0.00in /  0mm 0 W/m2
21:29 54.9 °F /  12.7 °C 51.4 °F /  10.8 °C 30.42in /  1030hPa SSW 7.4mph /  11.9km/h 10mph /  16.1km/h 88% 0.00in /  0mm 0 W/m2
21:34 54.6 °F /  12.6 °C 51.2 °F /  10.7 °C 30.42in /  1030hPa SSW 7mph /  11.3km/h 11mph /  17.7km/h 88% 0.00in /  0mm 0 W/m2
21:39 54.5 °F /  12.5 °C 51.1 °F /  10.6 °C 30.42in /  1030hPa SSW 4.7mph /  7.6km/h 8mph /  12.9km/h 88% 0.00in /  0mm 0 W/m2
21:44 54.3 °F /  12.4 °C 51.1 °F /  10.6 °C 30.42in /  1030hPa South 4.7mph /  7.6km/h 10mph /  16.1km/h 88.8% 0.00in /  0mm 0 W/m2
21:49 54.1 °F /  12.3 °C 50.7 °F /  10.4 °C 30.42in /  1030hPa SW 5.2mph /  8.4km/h 9mph /  14.5km/h 88.6% 0.00in /  0mm 0 W/m2
21:54 53.9 °F /  12.2 °C 50.6 °F /  10.3 °C 30.42in /  1030hPa SSW 9mph /  14.5km/h 14mph /  22.5km/h 89% 0.00in /  0mm 0 W/m2
21:59 53.7 °F /  12.1 °C 50.5 °F /  10.3 °C 30.42in /  1030hPa South 5.3mph /  8.5km/h 14mph /  22.5km/h 89% 0.00in /  0mm 0 W/m2
22:04 53.5 °F /  11.9 °C 50.3 °F /  10.2 °C 30.42in /  1030hPa South 4.5mph /  7.2km/h 8mph /  12.9km/h 89% 0.00in /  0mm 0 W/m2
22:08 53.5 °F /  11.9 °C 50.3 °F /  10.2 °C 30.43in /  1030.4hPa South 2.7mph /  4.3km/h 7mph /  11.3km/h 89% 0.00in /  0mm 0 W/m2
22:14 53.4 °F /  11.9 °C 50.2 °F /  10.1 °C 30.43in /  1030.4hPa South 4.7mph /  7.6km/h 9mph /  14.5km/h 89% 0.00in /  0mm 0 W/m2
22:19 53.2 °F /  11.8 °C 50.3 °F /  10.2 °C 30.43in /  1030.4hPa South 4.5mph /  7.2km/h 10mph /  16.1km/h 89.8% 0.00in /  0mm 0 W/m2
22:24 53.2 °F /  11.8 °C 50.4 °F /  10.2 °C 30.43in /  1030.4hPa South 4mph /  6.4km/h 9mph /  14.5km/h 90% 0.00in /  0mm 0 W/m2
22:29 53.1 °F /  11.7 °C 50.2 °F /  10.1 °C 30.42in /  1030hPa SSW 4mph /  6.4km/h 9mph /  14.5km/h 90% 0.00in /  0mm 0 W/m2
22:34 53 °F /  11.7 °C 50.1 °F /  10.1 °C 30.42in /  1030hPa SSW 4.5mph /  7.2km/h 10mph /  16.1km/h 90% 0.00in /  0mm 0 W/m2
22:39 52.9 °F /  11.6 °C 50 °F /  10 °C 30.42in /  1030hPa SSW 5.4mph /  8.7km/h 12mph /  19.3km/h 90% 0.00in /  0mm 0 W/m2
22:44 52.8 °F /  11.6 °C 49.9 °F /  9.9 °C 30.43in /  1030.4hPa SSW 4.6mph /  7.4km/h 9mph /  14.5km/h 90% 0.00in /  0mm 0 W/m2
22:49 52.8 °F /  11.6 °C 49.9 °F /  9.9 °C 30.43in /  1030.4hPa South 3.5mph /  5.6km/h 12mph /  19.3km/h 90% 0.00in /  0mm 0 W/m2
22:54 52.6 °F /  11.4 °C 49.8 °F /  9.9 °C 30.43in /  1030.4hPa South 4.1mph /  6.6km/h 9mph /  14.5km/h 90.2% 0.00in /  0mm 0 W/m2
22:59 52.5 °F /  11.4 °C 49.8 °F /  9.9 °C 30.43in /  1030.4hPa South 5.5mph /  8.9km/h 8mph /  12.9km/h 90.4% 0.00in /  0mm 0 W/m2
23:04 52.3 °F /  11.3 °C 49.6 °F /  9.8 °C 30.43in /  1030.4hPa South 2.8mph /  4.5km/h 8mph /  12.9km/h 90.2% 0.00in /  0mm 0 W/m2
23:09 52.3 °F /  11.3 °C 49.8 °F /  9.9 °C 30.42in /  1030hPa SSE 4.4mph /  7.1km/h 9mph /  14.5km/h 91% 0.00in /  0mm 0 W/m2
23:14 52.2 °F /  11.2 °C 49.6 °F /  9.8 °C 30.42in /  1030hPa SSW 3.2mph /  5.1km/h 8mph /  12.9km/h 91% 0.00in /  0mm 0 W/m2
23:19 52.2 °F /  11.2 °C 49.6 °F /  9.8 °C 30.42in /  1030hPa SSW 3.6mph /  5.8km/h 7mph /  11.3km/h 91% 0.00in /  0mm 0 W/m2
23:24 52.1 °F /  11.2 °C 49.6 °F /  9.8 °C 30.42in /  1030hPa SSW 3.2mph /  5.1km/h 6mph /  9.7km/h 91% 0.00in /  0mm 0 W/m2
23:29 52 °F /  11.1 °C 49.5 °F /  9.7 °C 30.42in /  1030hPa SSW 3.3mph /  5.3km/h 7mph /  11.3km/h 91% 0.00in /  0mm 0 W/m2
23:34 52 °F /  11.1 °C 49.5 °F /  9.7 °C 30.42in /  1030hPa SSW 3.7mph /  6km/h 9mph /  14.5km/h 91% 0.00in /  0mm 0 W/m2
23:39 52 °F /  11.1 °C 49.5 °F /  9.7 °C 30.42in /  1030hPa SSW 3.9mph /  6.3km/h 8mph /  12.9km/h 91% 0.00in /  0mm 0 W/m2
23:44 51.8 °F /  11 °C 49.3 °F /  9.6 °C 30.42in /  1030hPa SW 5.8mph /  9.3km/h 9mph /  14.5km/h 91% 0.00in /  0mm 0 W/m2
23:49 51.7 °F /  10.9 °C 49.2 °F /  9.6 °C 30.42in /  1030hPa WSW 5mph /  8km/h 9mph /  14.5km/h 91% 0.00in /  0mm 0 W/m2
23:54 51.6 °F /  10.9 °C 49.1 °F /  9.5 °C 30.42in /  1030hPa SW 4mph /  6.4km/h 9mph /  14.5km/h 91% 0.00in /  0mm 0 W/m2
23:59 51.6 °F /  10.9 °C 49.1 °F /  9.5 °C 30.42in /  1030hPa SSW 6.2mph /  10km/h 10mph /  16.1km/h 91% 0.00in /  0mm 0 W/m2
Bath Spa Weather
Compliments of Weather Underground - 2 mb